Disclaimer

Please do not use the information listed here in-flight or in-navigation, as they are not provided to us by the airports but are provided by volunteers, so they might be outdated.

Search


Regions


Airport information page

Radio informations:
Tower (TWR) - 118.1 MHz
Approach (APP) - 118.1 MHz

Airport informations:
Latitude: 13° 49' 47.89" S
Longitude: 172° 00' 30.01" W
Elevation: 58 feet - 18 meters
Operating hours: 24 hour operations
Operating agency: Civil government, landing fees and diplomatic clearance may be required
Timezone: UTC-11
Fuel: Jet A1, without icing nhibitor.

100/130 octane gasoline, leaded, MIL-L-5572F (GREEN)

Runway information:
08/26 - 9843 x 148 feet< - >3000 x 45 meters

Recent METARs:
NSFA 160300Z 03003KT 9999 VCSH SCT018 BKN036 27/25 Q1007 RMK NI L
NSFA 160300Z 03003KT 9999 VCSH SCT018 BKN036 27/25 Q1007 RMK NI L
NSFA 160400Z 05003KT 9999 -DZ SCT018 BKN034 OVC110 25/24 Q1007

Airport on the map: